sensor_id;sensor_type;location;lat;lon;timestamp;pressure;altitude;pressure_sealevel;temperature;humidity
60427;BME280;46274;47.168;27.604;2023-02-16T00:04:21;101309.16;;;2.76;66.22
60427;BME280;46274;47.168;27.604;2023-02-16T00:10:33;101303.78;;;2.33;68.52
60427;BME280;46274;47.168;27.604;2023-02-16T00:16:39;101300.84;;;2.67;66.81
60427;BME280;46274;47.168;27.604;2023-02-16T00:22:41;101267.56;;;2.28;67.92
60427;BME280;46274;47.168;27.604;2023-02-16T00:28:44;101258.94;;;2.08;68.43
60427;BME280;46274;47.168;27.604;2023-02-16T00:34:49;101241.25;;;1.91;69.56
60427;BME280;46274;47.168;27.604;2023-02-16T00:40:51;101262.97;;;2.15;69.14
60427;BME280;46274;47.168;27.604;2023-02-16T00:46:57;101237.00;;;2.32;67.36
60427;BME280;46274;47.168;27.604;2023-02-16T00:53:00;101277.03;;;2.48;67.78
60427;BME280;46274;47.168;27.604;2023-02-16T00:59:19;101248.56;;;2.32;67.95
60427;BME280;46274;47.168;27.604;2023-02-16T01:05:23;101260.09;;;2.04;68.75
60427;BME280;46274;47.168;27.604;2023-02-16T01:11:25;101188.22;;;0.77;73.03
60427;BME280;46274;47.168;27.604;2023-02-16T01:17:31;101258.88;;;1.80;70.37
60427;BME280;46274;47.168;27.604;2023-02-16T01:23:37;101256.16;;;1.19;73.06
60427;BME280;46274;47.168;27.604;2023-02-16T01:29:40;101215.91;;;0.59;75.51
60427;BME280;46274;47.168;27.604;2023-02-16T01:35:43;101223.72;;;0.46;76.28
60427;BME280;46274;47.168;27.604;2023-02-16T01:48:16;101233.78;;;1.82;70.15
60427;BME280;46274;47.168;27.604;2023-02-16T01:54:42;101229.25;;;0.59;74.87
60427;BME280;46274;47.168;27.604;2023-02-16T02:07:05;101203.19;;;0.64;73.61
60427;BME280;46274;47.168;27.604;2023-02-16T02:13:40;101219.53;;;0.42;74.96
60427;BME280;46274;47.168;27.604;2023-02-16T02:32:47;101200.41;;;0.34;74.39
60427;BME280;46274;47.168;27.604;2023-02-16T02:39:01;101117.66;;;0.83;70.06
60427;BME280;46274;47.168;27.604;2023-02-16T02:45:28;101150.88;;;0.77;70.85
60427;BME280;46274;47.168;27.604;2023-02-16T02:51:34;101195.97;;;0.50;73.23
60427;BME280;46274;47.168;27.604;2023-02-16T02:57:44;101169.31;;;-0.16;75.77
60427;BME280;46274;47.168;27.604;2023-02-16T03:04:13;101178.69;;;0.73;71.60
60427;BME280;46274;47.168;27.604;2023-02-16T03:10:24;101106.16;;;0.19;71.09
60427;BME280;46274;47.168;27.604;2023-02-16T03:16:57;101154.19;;;-0.16;73.32
60427;BME280;46274;47.168;27.604;2023-02-16T03:23:21;101168.16;;;0.38;70.88
60427;BME280;46274;47.168;27.604;2023-02-16T03:29:44;101124.22;;;0.30;70.46
60427;BME280;46274;47.168;27.604;2023-02-16T03:35:52;101165.34;;;0.57;69.98
60427;BME280;46274;47.168;27.604;2023-02-16T03:42:03;101162.50;;;0.45;69.99
60427;BME280;46274;47.168;27.604;2023-02-16T03:48:11;101051.66;;;-0.40;71.54
60427;BME280;46274;47.168;27.604;2023-02-16T03:54:30;101110.56;;;0.03;71.51
60427;BME280;46274;47.168;27.604;2023-02-16T04:00:35;101141.00;;;-0.35;72.71
60427;BME280;46274;47.168;27.604;2023-02-16T04:06:37;101132.72;;;-0.63;75.24
60427;BME280;46274;47.168;27.604;2023-02-16T04:12:40;101125.75;;;-0.83;75.51
60427;BME280;46274;47.168;27.604;2023-02-16T04:18:46;101128.34;;;-0.14;71.63
60427;BME280;46274;47.168;27.604;2023-02-16T04:24:48;101128.41;;;-0.66;73.61
60427;BME280;46274;47.168;27.604;2023-02-16T04:30:52;101117.25;;;-0.22;71.16
60427;BME280;46274;47.168;27.604;2023-02-16T04:36:55;101095.34;;;-1.14;74.74
60427;BME280;46274;47.168;27.604;2023-02-16T04:43:00;101114.19;;;-0.32;71.55
60427;BME280;46274;47.168;27.604;2023-02-16T04:49:03;101116.56;;;-0.43;71.53
60427;BME280;46274;47.168;27.604;2023-02-16T04:55:05;101112.25;;;-0.28;70.90
60427;BME280;46274;47.168;27.604;2023-02-16T05:01:21;101103.91;;;-1.44;77.26
60427;BME280;46274;47.168;27.604;2023-02-16T05:07:24;101031.00;;;-1.21;74.06
60427;BME280;46274;47.168;27.604;2023-02-16T05:13:29;101088.03;;;-0.74;71.78
60427;BME280;46274;47.168;27.604;2023-02-16T05:19:51;100951.59;;;-1.81;73.34
60427;BME280;46274;47.168;27.604;2023-02-16T05:25:56;101048.41;;;-0.80;71.39
60427;BME280;46274;47.168;27.604;2023-02-16T05:31:59;101095.22;;;-0.76;72.21
60427;BME280;46274;47.168;27.604;2023-02-16T05:38:05;101093.78;;;-1.01;74.36
60427;BME280;46274;47.168;27.604;2023-02-16T05:44:07;101099.34;;;-1.59;78.15
60427;BME280;46274;47.168;27.604;2023-02-16T05:50:11;101097.09;;;-0.78;73.90
60427;BME280;46274;47.168;27.604;2023-02-16T05:56:13;100977.41;;;-1.30;72.47
60427;BME280;46274;47.168;27.604;2023-02-16T06:02:23;100955.00;;;-1.60;73.44
60427;BME280;46274;47.168;27.604;2023-02-16T06:08:27;101093.34;;;-0.74;73.98
60427;BME280;46274;47.168;27.604;2023-02-16T06:14:29;101089.50;;;-1.03;77.30
60427;BME280;46274;47.168;27.604;2023-02-16T06:20:32;101026.72;;;-1.60;78.66
60427;BME280;46274;47.168;27.604;2023-02-16T06:26:36;100928.78;;;-1.15;75.95
60427;BME280;46274;47.168;27.604;2023-02-16T06:32:39;101074.16;;;0.19;76.10
60427;BME280;46274;47.168;27.604;2023-02-16T06:38:44;100937.94;;;-0.38;75.57
60427;BME280;46274;47.168;27.604;2023-02-16T06:44:49;100867.94;;;-0.40;74.64
60427;BME280;46274;47.168;27.604;2023-02-16T06:50:51;101067.34;;;1.07;74.22
60427;BME280;46274;47.168;27.604;2023-02-16T06:56:53;101064.88;;;1.18;74.03
60427;BME280;46274;47.168;27.604;2023-02-16T07:02:55;101051.63;;;1.17;73.56
60427;BME280;46274;47.168;27.604;2023-02-16T07:09:00;101012.53;;;1.01;73.95
60427;BME280;46274;47.168;27.604;2023-02-16T07:15:03;100983.50;;;1.40;73.58
60427;BME280;46274;47.168;27.604;2023-02-16T07:21:06;101028.88;;;1.97;73.09
60427;BME280;46274;47.168;27.604;2023-02-16T07:27:08;100882.47;;;1.61;71.97
60427;BME280;46274;47.168;27.604;2023-02-16T07:33:10;101010.53;;;2.59;71.94
60427;BME280;46274;47.168;27.604;2023-02-16T07:39:13;100863.81;;;1.73;71.76
60427;BME280;46274;47.168;27.604;2023-02-16T07:45:15;100996.69;;;2.80;71.63
60427;BME280;46274;47.168;27.604;2023-02-16T07:51:23;100893.56;;;2.49;70.51
60427;BME280;46274;47.168;27.604;2023-02-16T07:57:34;100931.28;;;2.84;69.41
60427;BME280;46274;47.168;27.604;2023-02-16T08:03:36;100973.25;;;3.60;67.39
60427;BME280;46274;47.168;27.604;2023-02-16T08:09:39;100911.25;;;3.78;65.95
60427;BME280;46274;47.168;27.604;2023-02-16T08:15:42;100907.53;;;3.91;64.94
60427;BME280;46274;47.168;27.604;2023-02-16T08:21:45;100960.28;;;4.52;63.01
60427;BME280;46274;47.168;27.604;2023-02-16T08:27:50;100953.66;;;4.80;61.40
60427;BME280;46274;47.168;27.604;2023-02-16T08:33:52;100897.59;;;4.64;58.75
60427;BME280;46274;47.168;27.604;2023-02-16T08:39:55;100926.13;;;5.00;55.62
60427;BME280;46274;47.168;27.604;2023-02-16T08:46:05;100806.84;;;4.92;55.67
60427;BME280;46274;47.168;27.604;2023-02-16T08:52:09;100943.59;;;5.96;54.67
60427;BME280;46274;47.168;27.604;2023-02-16T08:58:19;100932.31;;;6.25;52.78
60427;BME280;46274;47.168;27.604;2023-02-16T09:04:31;100901.66;;;6.37;52.45
60427;BME280;46274;47.168;27.604;2023-02-16T09:10:40;100843.50;;;6.46;53.13
60427;BME280;46274;47.168;27.604;2023-02-16T09:16:43;100917.09;;;7.19;52.63
60427;BME280;46274;47.168;27.604;2023-02-16T09:22:47;100708.53;;;6.08;54.00
60427;BME280;46274;47.168;27.604;2023-02-16T09:28:50;100841.97;;;7.26;52.95
60427;BME280;46274;47.168;27.604;2023-02-16T09:35:02;100865.25;;;7.36;52.83
60427;BME280;46274;47.168;27.604;2023-02-16T09:47:52;100885.97;;;7.86;51.41
60427;BME280;46274;47.168;27.604;2023-02-16T09:54:19;100708.13;;;7.15;51.76
60427;BME280;46274;47.168;27.604;2023-02-16T10:08:12;100765.38;;;8.25;50.63
60427;BME280;46274;47.168;27.604;2023-02-16T10:20:35;100834.84;;;9.19;48.21
60427;BME280;46274;47.168;27.604;2023-02-16T10:26:48;100813.53;;;9.61;48.24
60427;BME280;46274;47.168;27.604;2023-02-16T10:33:05;100827.97;;;9.98;46.26
60427;BME280;46274;47.168;27.604;2023-02-16T10:51:54;100665.75;;;9.60;45.61
60427;BME280;46274;47.168;27.604;2023-02-16T10:58:01;100793.78;;;9.79;44.98
60427;BME280;46274;47.168;27.604;2023-02-16T11:04:36;100779.09;;;10.35;43.83
60427;BME280;46274;47.168;27.604;2023-02-16T11:10:49;100774.97;;;10.31;44.54
60427;BME280;46274;47.168;27.604;2023-02-16T11:17:29;100503.94;;;9.38;41.43
60427;BME280;46274;47.168;27.604;2023-02-16T11:23:39;100754.13;;;11.18;39.59
60427;BME280;46274;47.168;27.604;2023-02-16T11:30:14;100738.47;;;11.54;40.79
60427;BME280;46274;47.168;27.604;2023-02-16T11:42:56;100699.31;;;11.82;40.25
60427;BME280;46274;47.168;27.604;2023-02-16T11:55:46;100594.78;;;11.61;39.13
60427;BME280;46274;47.168;27.604;2023-02-16T12:15:45;100574.38;;;12.85;40.49
60427;BME280;46274;47.168;27.604;2023-02-16T12:22:23;100508.16;;;12.55;36.80
60427;BME280;46274;47.168;27.604;2023-02-16T12:48:38;100618.19;;;13.90;39.10
60427;BME280;46274;47.168;27.604;2023-02-16T12:54:51;100600.44;;;13.57;38.72
60427;BME280;46274;47.168;27.604;2023-02-16T13:01:12;100605.25;;;13.23;35.81
60427;BME280;46274;47.168;27.604;2023-02-16T13:07:38;100588.44;;;12.97;36.54
60427;BME280;46274;47.168;27.604;2023-02-16T13:14:16;100493.66;;;12.62;35.20
60427;BME280;46274;47.168;27.604;2023-02-16T13:20:30;100586.09;;;13.17;36.17
60427;BME280;46274;47.168;27.604;2023-02-16T13:40:53;100579.44;;;12.96;37.00
60427;BME280;46274;47.168;27.604;2023-02-16T13:47:17;100560.22;;;13.82;37.13
60427;BME280;46274;47.168;27.604;2023-02-16T13:53:38;100540.03;;;14.35;37.41
60427;BME280;46274;47.168;27.604;2023-02-16T13:59:58;100311.88;;;12.21;35.91
60427;BME280;46274;47.168;27.604;2023-02-16T14:13:09;100268.25;;;11.61;34.90
60427;BME280;46274;47.168;27.604;2023-02-16T14:19:34;100475.41;;;13.17;35.30
60427;BME280;46274;47.168;27.604;2023-02-16T14:25:44;100516.22;;;13.55;36.06
60427;BME280;46274;47.168;27.604;2023-02-16T14:32:29;100531.56;;;13.71;37.28
60427;BME280;46274;47.168;27.604;2023-02-16T14:58:02;100424.41;;;12.50;37.40
60427;BME280;46274;47.168;27.604;2023-02-16T15:04:32;100266.84;;;11.42;37.71
60427;BME280;46274;47.168;27.604;2023-02-16T15:10:52;100505.03;;;12.89;37.96
60427;BME280;46274;47.168;27.604;2023-02-16T15:17:26;100409.09;;;12.57;39.24
60427;BME280;46274;47.168;27.604;2023-02-16T15:24:22;100490.16;;;12.77;40.16
60427;BME280;46274;47.168;27.604;2023-02-16T15:30:49;100489.66;;;12.50;42.12
60427;BME280;46274;47.168;27.604;2023-02-16T15:37:38;100392.97;;;11.46;42.51
60427;BME280;46274;47.168;27.604;2023-02-16T15:43:47;100487.53;;;11.98;42.14
60427;BME280;46274;47.168;27.604;2023-02-16T15:50:13;100480.75;;;11.86;42.34
60427;BME280;46274;47.168;27.604;2023-02-16T15:56:26;100486.28;;;11.37;43.11
60427;BME280;46274;47.168;27.604;2023-02-16T16:02:41;100483.72;;;10.86;44.29
60427;BME280;46274;47.168;27.604;2023-02-16T16:08:51;100427.97;;;9.57;45.44
60427;BME280;46274;47.168;27.604;2023-02-16T16:15:17;100477.25;;;10.12;44.81
60427;BME280;46274;47.168;27.604;2023-02-16T16:21:30;100379.47;;;9.22;46.00
60427;BME280;46274;47.168;27.604;2023-02-16T16:27:51;100418.19;;;8.78;48.02
60427;BME280;46274;47.168;27.604;2023-02-16T16:34:00;100464.75;;;8.98;47.50
60427;BME280;46274;47.168;27.604;2023-02-16T16:40:26;100457.03;;;8.32;48.34
60427;BME280;46274;47.168;27.604;2023-02-16T16:46:39;100449.22;;;6.79;53.05
60427;BME280;46274;47.168;27.604;2023-02-16T16:52:51;100230.13;;;6.14;51.31
60427;BME280;46274;47.168;27.604;2023-02-16T16:59:02;100335.72;;;5.96;52.89
60427;BME280;46274;47.168;27.604;2023-02-16T17:05:21;100457.69;;;5.76;55.64
60427;BME280;46274;47.168;27.604;2023-02-16T17:11:28;100435.47;;;6.82;52.56
60427;BME280;46274;47.168;27.604;2023-02-16T17:17:44;100438.03;;;6.64;52.84
60427;BME280;46274;47.168;27.604;2023-02-16T17:23:50;100440.44;;;6.38;53.66
60427;BME280;46274;47.168;27.604;2023-02-16T17:29:53;100419.28;;;6.04;54.44
60427;BME280;46274;47.168;27.604;2023-02-16T17:36:03;100408.22;;;5.57;56.02
60427;BME280;46274;47.168;27.604;2023-02-16T17:42:16;100314.47;;;5.23;55.60
60427;BME280;46274;47.168;27.604;2023-02-16T17:48:21;100419.72;;;6.29;54.14
60427;BME280;46274;47.168;27.604;2023-02-16T17:54:46;100409.09;;;6.18;54.54
60427;BME280;46274;47.168;27.604;2023-02-16T18:00:58;100382.06;;;4.35;60.25
60427;BME280;46274;47.168;27.604;2023-02-16T18:07:02;100407.06;;;5.19;57.88
60427;BME280;46274;47.168;27.604;2023-02-16T18:13:12;100405.66;;;4.73;59.72
60427;BME280;46274;47.168;27.604;2023-02-16T18:19:18;100396.50;;;5.28;56.91
60427;BME280;46274;47.168;27.604;2023-02-16T18:25:21;100395.22;;;5.32;56.84
60427;BME280;46274;47.168;27.604;2023-02-16T18:31:26;100405.44;;;5.68;55.61
60427;BME280;46274;47.168;27.604;2023-02-16T18:37:36;100097.34;;;2.72;60.13
60427;BME280;46274;47.168;27.604;2023-02-16T18:43:46;100400.53;;;4.17;61.92
60427;BME280;46274;47.168;27.604;2023-02-16T18:49:49;100346.09;;;4.37;59.27
60427;BME280;46274;47.168;27.604;2023-02-16T18:55:59;100403.84;;;3.32;65.53
60427;BME280;46274;47.168;27.604;2023-02-16T19:02:03;100396.66;;;4.10;61.33
60427;BME280;46274;47.168;27.604;2023-02-16T19:08:08;100388.72;;;4.20;60.11
60427;BME280;46274;47.168;27.604;2023-02-16T19:14:27;100397.81;;;4.28;60.30
60427;BME280;46274;47.168;27.604;2023-02-16T19:20:39;100099.22;;;1.92;62.65
60427;BME280;46274;47.168;27.604;2023-02-16T19:26:54;100382.78;;;4.05;60.43
60427;BME280;46274;47.168;27.604;2023-02-16T19:33:04;100398.81;;;3.84;62.25
60427;BME280;46274;47.168;27.604;2023-02-16T19:39:16;100383.72;;;3.71;64.27
60427;BME280;46274;47.168;27.604;2023-02-16T19:45:24;100401.47;;;3.84;64.50
60427;BME280;46274;47.168;27.604;2023-02-16T19:51:26;100410.84;;;3.89;64.44
60427;BME280;46274;47.168;27.604;2023-02-16T19:57:29;100420.25;;;3.84;64.80
60427;BME280;46274;47.168;27.604;2023-02-16T20:03:31;100411.25;;;3.85;64.89
60427;BME280;46274;47.168;27.604;2023-02-16T20:09:34;100375.56;;;3.73;64.38
60427;BME280;46274;47.168;27.604;2023-02-16T20:15:52;100286.63;;;3.36;63.59
60427;BME280;46274;47.168;27.604;2023-02-16T20:21:59;100373.88;;;3.61;64.25
60427;BME280;46274;47.168;27.604;2023-02-16T20:28:01;100417.22;;;3.77;63.82
60427;BME280;46274;47.168;27.604;2023-02-16T20:34:06;100378.25;;;3.73;62.54
60427;BME280;46274;47.168;27.604;2023-02-16T20:40:09;100354.38;;;3.59;60.92
60427;BME280;46274;47.168;27.604;2023-02-16T20:46:17;100377.88;;;3.66;60.74
60427;BME280;46274;47.168;27.604;2023-02-16T20:52:20;100386.03;;;3.76;59.89
60427;BME280;46274;47.168;27.604;2023-02-16T20:58:22;100421.81;;;3.86;59.71
60427;BME280;46274;47.168;27.604;2023-02-16T21:04:25;100426.72;;;3.92;58.88
60427;BME280;46274;47.168;27.604;2023-02-16T21:10:31;100308.31;;;3.21;58.06
60427;BME280;46274;47.168;27.604;2023-02-16T21:16:34;100356.00;;;3.50;57.99
60427;BME280;46274;47.168;27.604;2023-02-16T21:22:36;100353.19;;;3.40;57.99
60427;BME280;46274;47.168;27.604;2023-02-16T21:28:39;100418.19;;;3.87;57.49
60427;BME280;46274;47.168;27.604;2023-02-16T21:34:42;100424.13;;;3.91;57.29
60427;BME280;46274;47.168;27.604;2023-02-16T21:40:45;100237.69;;;2.79;56.78
60427;BME280;46274;47.168;27.604;2023-02-16T21:47:05;100393.59;;;3.71;57.02
60427;BME280;46274;47.168;27.604;2023-02-16T21:53:28;100431.81;;;3.84;57.23
60427;BME280;46274;47.168;27.604;2023-02-16T21:59:32;100446.44;;;3.69;58.14
60427;BME280;46274;47.168;27.604;2023-02-16T22:05:35;100448.91;;;3.61;58.18
60427;BME280;46274;47.168;27.604;2023-02-16T22:11:39;100447.66;;;3.76;57.22
60427;BME280;46274;47.168;27.604;2023-02-16T22:17:41;100431.25;;;3.69;56.93
60427;BME280;46274;47.168;27.604;2023-02-16T22:23:44;100259.19;;;2.66;56.58
60427;BME280;46274;47.168;27.604;2023-02-16T22:29:50;100387.53;;;3.46;56.20
60427;BME280;46274;47.168;27.604;2023-02-16T22:35:54;100441.59;;;3.63;57.30
60427;BME280;46274;47.168;27.604;2023-02-16T22:41:59;100399.47;;;3.31;57.29
60427;BME280;46274;47.168;27.604;2023-02-16T22:48:04;100410.06;;;3.55;56.76
60427;BME280;46274;47.168;27.604;2023-02-16T22:54:10;100394.81;;;3.56;56.86
60427;BME280;46274;47.168;27.604;2023-02-16T23:00:22;100447.22;;;3.48;57.84
60427;BME280;46274;47.168;27.604;2023-02-16T23:06:30;100446.47;;;3.58;57.80
60427;BME280;46274;47.168;27.604;2023-02-16T23:12:39;100423.00;;;2.81;59.95
60427;BME280;46274;47.168;27.604;2023-02-16T23:18:42;100450.78;;;2.91;59.61
60427;BME280;46274;47.168;27.604;2023-02-16T23:24:45;100433.03;;;2.90;59.17
60427;BME280;46274;47.168;27.604;2023-02-16T23:31:11;100422.81;;;2.49;60.39
60427;BME280;46274;47.168;27.604;2023-02-16T23:37:14;100448.59;;;2.26;61.62
60427;BME280;46274;47.168;27.604;2023-02-16T23:43:19;100442.09;;;1.56;63.84
60427;BME280;46274;47.168;27.604;2023-02-16T23:49:21;100422.25;;;1.84;62.33
60427;BME280;46274;47.168;27.604;2023-02-16T23:55:40;100279.41;;;0.79;62.32
